createdAt,value
2023-04-09T00:00:44.226Z,4.95
2023-04-09T00:03:46.275Z,5.00
2023-04-09T00:06:48.795Z,4.99
2023-04-09T00:09:50.780Z,5.27
2023-04-09T00:12:54.037Z,5.45
2023-04-09T00:15:56.175Z,5.53
2023-04-09T00:18:58.660Z,5.61
2023-04-09T00:22:00.465Z,5.65
2023-04-09T00:25:02.643Z,5.72
2023-04-09T00:28:06.116Z,5.83
2023-04-09T00:31:08.077Z,5.75
2023-04-09T00:34:10.909Z,5.70
2023-04-09T00:37:12.788Z,5.75
2023-04-09T00:40:14.812Z,5.64
2023-04-09T00:43:18.249Z,5.67
2023-04-09T00:46:20.054Z,5.67
2023-04-09T00:49:24.872Z,5.69
2023-04-09T00:52:27.165Z,5.73
2023-04-09T00:55:30.294Z,5.74
2023-04-09T00:58:33.817Z,5.70
2023-04-09T01:01:36.198Z,5.67
2023-04-09T01:04:40.657Z,5.66
2023-04-09T01:07:55.012Z,5.68
2023-04-09T01:11:07.250Z,5.70
2023-04-09T01:14:18.225Z,5.63
2023-04-09T01:17:24.634Z,5.64
2023-04-09T01:20:34.922Z,5.71
2023-04-09T01:23:47.283Z,5.70
2023-04-09T01:26:54.636Z,5.65
2023-04-09T01:30:00.311Z,5.64
2023-04-09T01:33:05.415Z,5.63
2023-04-09T01:36:08.078Z,5.63
2023-04-09T01:39:10.325Z,5.73
2023-04-09T01:42:13.212Z,5.73
2023-04-09T01:45:16.982Z,5.60
2023-04-09T01:48:19.883Z,5.76
2023-04-09T01:51:21.915Z,5.43
2023-04-09T01:54:24.458Z,5.77
2023-04-09T01:57:26.381Z,5.67
2023-04-09T02:00:35.919Z,5.73
2023-04-09T02:03:41.395Z,5.75
2023-04-09T02:06:48.596Z,5.69
2023-04-09T02:09:54.753Z,5.68
2023-04-09T02:12:59.640Z,5.66
2023-04-09T02:16:04.428Z,5.59
2023-04-09T02:19:06.474Z,5.63
2023-04-09T02:22:08.354Z,5.63
2023-04-09T02:25:10.389Z,5.66
2023-04-09T02:28:12.356Z,5.47
2023-04-09T02:31:15.902Z,5.50
2023-04-09T02:34:17.812Z,5.43
2023-04-09T02:37:20.421Z,5.50
2023-04-09T02:40:22.308Z,5.48
2023-04-09T02:43:24.299Z,5.51
2023-04-09T02:46:27.583Z,5.47
2023-04-09T02:49:30.317Z,5.52
2023-04-09T02:52:32.156Z,5.53
2023-04-09T02:55:33.963Z,5.50
2023-04-09T02:58:36.263Z,5.52
2023-04-09T03:01:39.626Z,5.40
2023-04-09T03:04:42.331Z,5.66
2023-04-09T03:07:44.192Z,5.72
2023-04-09T03:10:45.989Z,5.67
2023-04-09T03:13:47.752Z,5.76
2023-04-09T03:16:51.044Z,5.74
2023-04-09T03:19:53.456Z,5.63
2023-04-09T03:22:55.300Z,5.53
2023-04-09T03:26:03.688Z,5.73
2023-04-09T03:29:06.314Z,5.80
2023-04-09T03:32:10.604Z,5.86
2023-04-09T03:35:12.428Z,5.77
2023-04-09T03:38:14.780Z,5.80
2023-04-09T03:41:16.883Z,5.65
2023-04-09T03:44:19.161Z,5.70
2023-04-09T03:47:22.374Z,5.76
2023-04-09T03:50:24.240Z,5.63
2023-04-09T03:53:26.452Z,5.55
2023-04-09T03:56:28.315Z,5.76
2023-04-09T03:59:30.108Z,5.54
2023-04-09T04:02:34.020Z,5.80
2023-04-09T04:05:36.204Z,5.87
2023-04-09T04:08:38.015Z,5.86
2023-04-09T04:11:39.800Z,5.86
2023-04-09T04:14:41.649Z,5.93
2023-04-09T04:17:44.953Z,5.80
2023-04-09T04:20:46.842Z,5.80
2023-04-09T04:23:48.708Z,5.81
2023-04-09T04:26:50.629Z,5.84
2023-04-09T04:29:52.554Z,5.89
2023-04-09T04:32:56.536Z,5.88
2023-04-09T04:36:04.847Z,5.86
2023-04-09T04:39:06.995Z,5.93
2023-04-09T04:42:08.756Z,6.02
2023-04-09T04:45:10.880Z,6.14
2023-04-09T04:48:14.385Z,6.19
2023-04-09T04:51:16.278Z,6.16
2023-04-09T04:54:19.024Z,6.20
2023-04-09T04:57:20.823Z,6.29
2023-04-09T05:00:22.828Z,6.11
2023-04-09T05:03:27.633Z,6.45
2023-04-09T05:06:29.883Z,6.43
2023-04-09T05:09:31.963Z,6.44
2023-04-09T05:12:33.829Z,6.52
2023-04-09T05:15:38.467Z,6.39
2023-04-09T05:18:41.605Z,6.44
2023-04-09T05:21:45.112Z,6.40
2023-04-09T05:24:48.678Z,6.48
2023-04-09T05:27:50.729Z,6.40
2023-04-09T05:30:52.576Z,6.45
2023-04-09T05:33:55.923Z,6.71
2023-04-09T05:36:57.749Z,6.69
2023-04-09T05:39:59.523Z,6.87
2023-04-09T05:43:01.479Z,6.77
2023-04-09T05:46:03.994Z,6.64
2023-04-09T05:49:07.756Z,6.55
2023-04-09T05:52:09.824Z,6.64
2023-04-09T05:55:11.714Z,6.60
2023-04-09T05:58:13.631Z,6.64
2023-04-09T06:01:15.500Z,6.73
2023-04-09T06:04:20.030Z,6.78
2023-04-09T06:07:22.780Z,6.92
2023-04-09T06:10:24.668Z,7.08
2023-04-09T06:13:26.458Z,7.13
2023-04-09T06:16:28.268Z,7.16
2023-04-09T06:19:31.698Z,7.20
2023-04-09T06:22:33.813Z,7.05
2023-04-09T06:25:36.359Z,7.26
2023-04-09T06:28:38.186Z,7.29
2023-04-09T06:31:40.931Z,7.33
2023-04-09T06:34:44.280Z,7.43
2023-04-09T06:37:46.775Z,7.46
2023-04-09T06:40:48.586Z,7.41
2023-04-09T06:43:50.834Z,7.38
2023-04-09T06:46:53.821Z,7.44
2023-04-09T06:49:57.063Z,7.54
2023-04-09T06:52:59.682Z,7.51
2023-04-09T06:56:01.562Z,7.48
2023-04-09T06:59:03.784Z,7.66
2023-04-09T07:02:07.508Z,7.75
2023-04-09T07:05:11.047Z,7.69
2023-04-09T07:08:13.642Z,7.82
2023-04-09T07:11:17.323Z,7.81
2023-04-09T07:14:19.211Z,7.88
2023-04-09T07:17:21.642Z,7.83
2023-04-09T07:20:24.831Z,7.86
2023-04-09T07:23:27.269Z,8.02
2023-04-09T07:26:29.934Z,8.03
2023-04-09T07:29:32.584Z,7.95
2023-04-09T07:32:34.684Z,8.03
2023-04-09T07:35:37.990Z,7.96
2023-04-09T07:38:40.577Z,7.99
2023-04-09T07:41:42.657Z,8.22
2023-04-09T07:44:44.494Z,8.21
2023-04-09T07:47:46.540Z,8.39
2023-04-09T07:50:49.818Z,8.24
2023-04-09T07:53:51.587Z,8.22
2023-04-09T07:56:53.557Z,8.42
2023-04-09T07:59:55.582Z,8.40
2023-04-09T08:02:57.789Z,6.89
2023-04-09T08:06:03.801Z,6.09
2023-04-09T08:09:06.293Z,6.20
2023-04-09T08:12:08.535Z,5.92
2023-04-09T08:15:11.101Z,6.26
2023-04-09T08:18:13.583Z,6.53
2023-04-09T08:21:16.900Z,6.43
2023-04-09T08:24:18.944Z,6.27
2023-04-09T08:27:22.115Z,6.83
2023-04-09T08:30:23.932Z,6.50
2023-04-09T08:33:26.692Z,7.31
2023-04-09T08:36:29.904Z,8.10
2023-04-09T08:39:32.550Z,8.58
2023-04-09T08:42:35.788Z,8.65
2023-04-09T08:45:41.349Z,8.33
2023-04-09T08:48:44.707Z,8.91
2023-04-09T08:51:49.395Z,9.04
2023-04-09T08:54:51.672Z,9.35
2023-04-09T08:57:53.578Z,9.45
2023-04-09T09:00:57.166Z,9.59
2023-04-09T09:04:01.707Z,8.10
2023-04-09T09:07:07.791Z,7.93
2023-04-09T09:10:10.087Z,7.83
2023-04-09T09:13:20.238Z,7.95
2023-04-09T09:16:22.172Z,7.72
2023-04-09T09:19:30.670Z,7.58
2023-04-09T09:22:54.895Z,7.89
2023-04-09T09:25:58.498Z,8.27
2023-04-09T09:29:05.809Z,7.80
2023-04-09T09:32:14.055Z,8.16
2023-04-09T09:35:18.787Z,8.12
2023-04-09T09:38:22.091Z,8.18
2023-04-09T09:41:24.887Z,8.06
2023-04-09T09:44:34.022Z,7.91
2023-04-09T09:47:37.571Z,8.46
2023-04-09T09:50:43.822Z,8.12
2023-04-09T09:53:50.878Z,8.22
2023-04-09T09:56:56.073Z,8.46
2023-04-09T10:00:01.576Z,8.58
2023-04-09T10:03:11.814Z,8.41
2023-04-09T10:06:14.600Z,8.50
2023-04-09T10:09:19.363Z,8.44
2023-04-09T10:12:25.457Z,7.97
2023-04-09T10:15:31.415Z,8.02
2023-04-09T10:18:38.729Z,7.78
2023-04-09T10:22:12.940Z,7.62
2023-04-09T10:25:34.234Z,7.60
2023-04-09T10:28:43.518Z,8.15
2023-04-09T10:31:52.473Z,8.48
2023-04-09T10:34:57.751Z,8.45
2023-04-09T10:38:00.601Z,8.22
2023-04-09T10:41:16.785Z,8.26
2023-04-09T10:44:22.834Z,8.09
2023-04-09T10:47:33.930Z,7.95
2023-04-09T10:50:36.729Z,8.38
2023-04-09T10:53:41.413Z,8.52
2023-04-09T10:57:10.949Z,8.59
2023-04-09T11:00:17.221Z,9.07
2023-04-09T11:03:24.538Z,8.88
2023-04-09T11:06:28.224Z,8.66
2023-04-09T11:09:30.142Z,8.94
2023-04-09T11:12:33.725Z,8.88
2023-04-09T11:15:37.038Z,8.17
2023-04-09T11:18:39.646Z,8.87
2023-04-09T11:21:46.362Z,9.19
2023-04-09T11:24:53.984Z,8.73
2023-04-09T11:28:12.108Z,8.33
2023-04-09T11:31:14.080Z,8.25
2023-04-09T11:34:17.530Z,8.85
2023-04-09T11:37:19.529Z,8.88
2023-04-09T11:40:24.260Z,8.80
2023-04-09T11:43:27.482Z,9.08
2023-04-09T11:46:30.544Z,9.06
2023-04-09T11:49:32.520Z,9.08
2023-04-09T11:52:36.137Z,8.87
2023-04-09T11:55:37.935Z,9.65
2023-04-09T11:58:45.810Z,9.53
2023-04-09T12:01:49.900Z,9.09
2023-04-09T12:04:51.926Z,9.38
2023-04-09T12:07:58.164Z,10.03
2023-04-09T12:11:09.286Z,10.04
2023-04-09T12:14:14.934Z,9.56
2023-04-09T12:17:16.780Z,9.81
2023-04-09T12:20:33.003Z,9.84
2023-04-09T12:23:35.232Z,10.22
2023-04-09T12:26:37.813Z,10.16
2023-04-09T12:29:41.685Z,9.61
2023-04-09T12:32:45.966Z,9.90
2023-04-09T12:35:48.006Z,9.77
2023-04-09T12:38:50.130Z,9.93
2023-04-09T12:41:54.532Z,10.69
2023-04-09T12:44:57.636Z,10.73
2023-04-09T12:47:59.847Z,10.32
2023-04-09T12:51:01.826Z,10.25
2023-04-09T12:54:04.311Z,9.99
2023-04-09T12:57:06.307Z,10.55
2023-04-09T13:00:11.509Z,10.44
2023-04-09T13:03:16.664Z,10.36
2023-04-09T13:06:18.806Z,10.29
2023-04-09T13:09:20.666Z,10.11
2023-04-09T13:12:23.506Z,10.24
2023-04-09T13:15:27.453Z,10.27
2023-04-09T13:18:29.294Z,10.11
2023-04-09T13:21:31.157Z,10.16
2023-04-09T13:24:33.776Z,10.30
2023-04-09T13:27:35.670Z,10.47
2023-04-09T13:30:39.062Z,10.39
2023-04-09T13:33:41.116Z,10.22
2023-04-09T13:36:42.948Z,10.29
2023-04-09T13:39:44.904Z,9.91
2023-04-09T13:42:47.683Z,9.79
2023-04-09T13:45:50.992Z,10.17
2023-04-09T13:48:53.186Z,10.15
2023-04-09T13:51:55.845Z,10.25
2023-04-09T13:54:57.666Z,10.17
2023-04-09T13:57:59.593Z,10.05
2023-04-09T14:01:03.246Z,10.18
2023-04-09T14:04:09.749Z,10.09
2023-04-09T14:07:12.617Z,10.17
2023-04-09T14:10:14.603Z,9.79
2023-04-09T14:13:16.555Z,10.07
2023-04-09T14:16:19.893Z,9.97
2023-04-09T14:19:21.865Z,9.91
2023-04-09T14:22:24.973Z,9.95
2023-04-09T14:25:26.849Z,10.02
2023-04-09T14:28:29.628Z,10.01
2023-04-09T14:31:32.919Z,9.68
2023-04-09T14:34:35.591Z,9.70
2023-04-09T14:37:39.118Z,9.61
2023-04-09T14:40:41.768Z,9.76
2023-04-09T14:43:43.707Z,9.49
2023-04-09T14:46:47.469Z,9.64
2023-04-09T14:49:49.494Z,9.44
2023-04-09T14:52:51.488Z,9.85
2023-04-09T14:55:53.499Z,10.03
2023-04-09T14:58:55.476Z,10.21
2023-04-09T15:01:58.924Z,10.29
2023-04-09T15:05:01.878Z,10.22
2023-04-09T15:08:04.636Z,9.99
2023-04-09T15:11:08.722Z,9.83
2023-04-09T15:14:10.758Z,10.17
2023-04-09T15:17:13.959Z,10.14
2023-04-09T15:20:16.007Z,10.05
2023-04-09T15:23:17.797Z,10.20
2023-04-09T15:26:20.838Z,10.08
2023-04-09T15:29:22.681Z,10.26
2023-04-09T15:32:26.217Z,10.18
2023-04-09T15:35:29.456Z,10.21
2023-04-09T15:38:31.410Z,10.02
2023-04-09T15:41:33.922Z,9.93
2023-04-09T15:44:36.368Z,9.85
2023-04-09T15:47:39.659Z,9.81
2023-04-09T15:50:41.539Z,9.70
2023-04-09T15:53:43.361Z,9.55
2023-04-09T15:56:45.281Z,9.50
2023-04-09T15:59:48.486Z,9.64
2023-04-09T16:02:53.137Z,9.54
2023-04-09T16:05:55.103Z,9.48
2023-04-09T16:08:57.386Z,9.32
2023-04-09T16:11:59.421Z,9.44
2023-04-09T16:15:01.573Z,9.37
2023-04-09T16:18:06.371Z,8.95
2023-04-09T16:21:08.487Z,8.76
2023-04-09T16:24:12.641Z,8.54
2023-04-09T16:27:16.121Z,8.79
2023-04-09T16:30:18.112Z,8.85
2023-04-09T16:33:24.176Z,8.73
2023-04-09T16:36:27.129Z,8.63
2023-04-09T16:39:29.585Z,8.49
2023-04-09T16:42:32.994Z,9.19
2023-04-09T16:45:35.678Z,8.45
2023-04-09T16:48:41.859Z,8.59
2023-04-09T16:51:43.907Z,8.71
2023-04-09T16:54:46.341Z,9.01
2023-04-09T16:57:48.384Z,8.33
2023-04-09T17:00:52.080Z,8.51
2023-04-09T17:07:08.526Z,8.77
2023-04-09T17:10:11.453Z,8.85
2023-04-09T17:13:14.483Z,8.75
2023-04-09T17:16:18.222Z,8.73
2023-04-09T17:19:21.767Z,7.85
2023-04-09T17:22:24.170Z,8.12
2023-04-09T17:25:26.344Z,8.10
2023-04-09T17:28:29.199Z,8.28
2023-04-09T17:31:31.120Z,8.56
2023-04-09T17:34:34.749Z,7.71
2023-04-09T17:37:37.789Z,7.94
2023-04-09T17:40:39.954Z,7.86
2023-04-09T17:43:41.933Z,7.53
2023-04-09T17:46:44.114Z,8.16
2023-04-09T17:49:47.654Z,8.09
2023-04-09T17:53:13.363Z,7.85
2023-04-09T17:56:15.534Z,7.72
2023-04-09T17:59:17.800Z,8.16
2023-04-09T18:02:19.988Z,8.03
2023-04-09T18:05:23.797Z,8.13
2023-04-09T18:08:25.886Z,7.78
2023-04-09T18:11:28.259Z,7.65
2023-04-09T18:14:32.491Z,7.47
2023-04-09T18:17:34.609Z,6.74
2023-04-09T18:20:38.111Z,7.31
2023-04-09T18:23:40.575Z,7.70
2023-04-09T18:26:42.597Z,7.36
2023-04-09T18:29:45.122Z,7.05
2023-04-09T18:32:48.481Z,7.11
2023-04-09T18:35:52.293Z,6.99
2023-04-09T18:38:54.815Z,6.88
2023-04-09T18:41:58.082Z,6.70
2023-04-09T18:45:00.067Z,6.53
2023-04-09T18:48:05.060Z,6.58
2023-04-09T18:51:11.431Z,6.46
2023-04-09T18:54:14.626Z,6.41
2023-04-09T18:57:17.001Z,6.33
2023-04-09T19:00:20.668Z,5.50
2023-04-09T19:03:22.836Z,5.95
2023-04-09T19:06:28.014Z,5.94
2023-04-09T19:09:32.043Z,5.64
2023-04-09T19:12:34.057Z,5.97
2023-04-09T19:15:36.036Z,5.61
2023-04-09T19:18:38.174Z,5.10
2023-04-09T19:21:41.541Z,5.92
2023-04-09T19:24:44.920Z,5.27
2023-04-09T19:27:47.078Z,5.86
2023-04-09T19:30:53.536Z,5.31
2023-04-09T19:33:55.676Z,5.97
2023-04-09T19:36:59.030Z,5.85
2023-04-09T19:40:06.872Z,5.64
2023-04-09T19:43:09.441Z,5.60
2023-04-09T19:46:11.430Z,5.55
2023-04-09T19:49:14.844Z,5.59
2023-04-09T19:52:18.329Z,5.58
2023-04-09T19:55:20.913Z,6.01
2023-04-09T19:58:23.205Z,5.89
2023-04-09T20:01:29.126Z,5.74
2023-04-09T20:04:31.128Z,6.67
2023-04-09T20:07:35.264Z,6.98
2023-04-09T20:10:39.819Z,7.13
2023-04-09T20:13:41.723Z,7.38
2023-04-09T20:16:43.611Z,7.65
2023-04-09T20:19:45.558Z,7.66
2023-04-09T20:22:56.481Z,7.51
2023-04-09T20:25:58.790Z,7.31
2023-04-09T20:29:01.858Z,7.32
2023-04-09T20:32:03.789Z,7.32
2023-04-09T20:35:08.523Z,7.26
2023-04-09T20:38:11.749Z,7.16
2023-04-09T20:41:14.648Z,7.13
2023-04-09T20:44:16.828Z,6.79
2023-04-09T20:47:20.817Z,7.16
2023-04-09T20:50:23.664Z,7.16
2023-04-09T20:53:26.951Z,7.12
2023-04-09T20:56:29.886Z,7.08
2023-04-09T20:59:32.167Z,6.99
2023-04-09T21:02:34.706Z,7.02
2023-04-09T21:05:36.737Z,7.01
2023-04-09T21:08:44.324Z,6.23
2023-04-09T21:11:51.909Z,6.30
2023-04-09T21:14:54.995Z,6.91
2023-04-09T21:18:01.433Z,6.39
2023-04-09T21:21:19.751Z,6.10
2023-04-09T21:24:25.220Z,6.14
2023-04-09T21:27:32.732Z,5.80
2023-04-09T21:30:45.847Z,5.90
2023-04-09T21:33:47.896Z,5.96
2023-04-09T21:36:53.019Z,5.83
2023-04-09T21:39:58.699Z,6.67
2023-04-09T21:43:01.753Z,6.48
2023-04-09T21:46:06.439Z,6.04
2023-04-09T21:49:08.547Z,6.05
2023-04-09T21:52:15.076Z,6.41
2023-04-09T21:55:19.690Z,5.89
2023-04-09T21:58:22.452Z,5.45
2023-04-09T22:01:34.575Z,5.49
2023-04-09T22:04:43.394Z,5.42
2023-04-09T22:07:48.393Z,5.47
2023-04-09T22:10:52.236Z,5.69
2023-04-09T22:13:56.384Z,5.66
2023-04-09T22:17:01.109Z,5.29
2023-04-09T22:20:03.387Z,5.48
2023-04-09T22:23:06.626Z,5.84
2023-04-09T22:26:13.893Z,5.13
2023-04-09T22:29:26.842Z,5.54
2023-04-09T22:32:29.489Z,5.09
2023-04-09T22:35:32.356Z,5.34
2023-04-09T22:38:34.712Z,5.81
2023-04-09T22:41:39.080Z,5.74
2023-04-09T22:44:41.027Z,5.76
2023-04-09T22:47:43.476Z,5.51
2023-04-09T22:50:46.057Z,5.66
2023-04-09T22:53:48.399Z,5.46
2023-04-09T22:56:51.842Z,5.18
2023-04-09T22:59:54.322Z,4.78
2023-04-09T23:02:56.455Z,4.74
2023-04-09T23:05:58.541Z,4.91
2023-04-09T23:09:04.137Z,5.36
2023-04-09T23:12:07.296Z,5.33
2023-04-09T23:15:09.939Z,5.30
2023-04-09T23:18:12.231Z,5.29
2023-04-09T23:21:14.024Z,5.23
2023-04-09T23:24:16.229Z,5.34
2023-04-09T23:27:19.569Z,5.35
2023-04-09T23:30:21.972Z,5.35
2023-04-09T23:33:24.235Z,5.45
2023-04-09T23:36:26.213Z,5.42
2023-04-09T23:39:28.229Z,5.33
2023-04-09T23:42:33.833Z,5.34
2023-04-09T23:45:35.742Z,5.28
2023-04-09T23:48:38.173Z,5.35
2023-04-09T23:51:40.049Z,5.29
2023-04-09T23:54:49.111Z,5.36
2023-04-09T23:57:52.317Z,5.26
